Time;durP1;ratioP1;P1;durP2;ratioP2;P2;SDS_P1;SDS_P2;PMS_P1;PMS_P2;Temp;Humidity;BMP_temperature;BMP_pressure;BME280_temperature;BME280_humidity;BME280_pressure;Samples;Min_cycle;Max_cycle;Signal;HPM_P1;HPM_P2
2022/10/07 00:00:54;;;;;;;7.10;3.60;;;;;;;;;;5047018;28;20091;-45
2022/10/07 00:03:21;;;;;;;8.00;4.13;;;;;;;;;;5047589;28;20375;-44
2022/10/07 00:06:10;;;;;;;6.25;3.47;;;;;;;;;;5046636;28;20021;-45
2022/10/07 00:08:37;;;;;;;6.45;3.80;;;;;;;;;;5043953;28;20092;-43
2022/10/07 00:11:14;;;;;;;9.15;3.92;;;;;;;;;;5045748;28;20531;-46
2022/10/07 00:13:40;;;;;;;8.10;3.72;;;;;;;;;;5043771;28;20524;-43
2022/10/07 00:16:16;;;;;;;10.13;3.58;;;;;;;;;;5047468;28;20072;-43
2022/10/07 00:18:42;;;;;;;6.45;4.22;;;;;;;;;;5041537;28;20037;-43
2022/10/07 00:21:12;;;;;;;9.48;3.78;;;;;;;;;;5045722;28;20033;-45
2022/10/07 00:23:41;;;;;;;8.75;3.50;;;;;;;;;;5044418;28;20064;-44
2022/10/07 00:26:09;;;;;;;7.85;3.95;;;;;;;;;;5046114;28;20025;-46
2022/10/07 00:28:35;;;;;;;5.38;3.60;;;;;;;;;;5047057;28;20081;-42
2022/10/07 00:31:03;;;;;;;7.10;3.70;;;;;;;;;;5034349;28;20572;-43
2022/10/07 00:33:35;;;;;;;6.65;3.63;;;;;;;;;;5045869;28;20043;-43
2022/10/07 00:36:00;;;;;;;14.73;3.65;;;;;;;;;;5048055;28;20148;-44
2022/10/07 00:38:25;;;;;;;11.05;3.65;;;;;;;;;;5045236;28;20136;-45
2022/10/07 00:40:51;;;;;;;8.75;3.55;;;;;;;;;;5047132;28;20384;-43
2022/10/07 00:43:26;;;;;;;8.48;3.60;;;;;;;;;;5046526;28;20096;-45
2022/10/07 00:45:55;;;;;;;8.88;3.45;;;;;;;;;;5045533;28;20511;-43
2022/10/07 00:48:25;;;;;;;8.85;3.38;;;;;;;;;;5045480;28;20049;-43
2022/10/07 00:50:54;;;;;;;11.40;3.63;;;;;;;;;;5048048;28;20111;-45
2022/10/07 00:53:21;;;;;;;6.10;3.72;;;;;;;;;;5048116;28;20516;-43
2022/10/07 00:55:47;;;;;;;11.77;3.63;;;;;;;;;;5044848;28;20037;-45
2022/10/07 00:58:12;;;;;;;6.00;3.30;;;;;;;;;;5046394;28;20048;-45
2022/10/07 01:00:39;;;;;;;8.75;3.72;;;;;;;;;;5047208;28;20060;-45
2022/10/07 01:03:04;;;;;;;9.30;3.50;;;;;;;;;;5042564;28;20033;-44
2022/10/07 01:05:30;;;;;;;9.07;3.38;;;;;;;;;;5046286;28;20033;-43
2022/10/07 01:07:57;;;;;;;6.68;3.35;;;;;;;;;;5044622;28;20083;-44
2022/10/07 01:10:28;;;;;;;5.97;3.60;;;;;;;;;;5046378;28;20485;-45
2022/10/07 01:13:05;;;;;;;7.45;3.20;;;;;;;;;;5045368;28;20055;-43
2022/10/07 01:15:39;;;;;;;8.00;3.30;;;;;;;;;;5044991;28;20021;-43
2022/10/07 01:18:22;;;;;;;9.27;3.85;;;;;;;;;;5044916;28;20072;-45
2022/10/07 01:21:06;;;;;;;7.97;3.60;;;;;;;;;;5046589;28;20384;-44
2022/10/07 01:23:34;;;;;;;6.50;3.97;;;;;;;;;;5043382;28;20080;-43
2022/10/07 01:26:13;;;;;;;4.68;3.70;;;;;;;;;;5044719;28;20056;-45
2022/10/07 01:28:48;;;;;;;10.32;4.47;;;;;;;;;;5042535;28;20041;-43
2022/10/07 01:31:19;;;;;;;4.82;3.47;;;;;;;;;;5043897;28;20075;-44
2022/10/07 01:33:47;;;;;;;7.43;3.55;;;;;;;;;;5043039;28;20072;-46
2022/10/07 01:36:16;;;;;;;9.98;3.80;;;;;;;;;;5044710;28;20037;-45
2022/10/07 01:38:49;;;;;;;4.60;3.17;;;;;;;;;;5045965;28;20598;-44
2022/10/07 01:41:17;;;;;;;10.15;3.70;;;;;;;;;;5045583;28;20029;-43
2022/10/07 01:43:44;;;;;;;12.68;3.65;;;;;;;;;;5045317;28;20124;-46
2022/10/07 01:46:14;;;;;;;10.02;3.60;;;;;;;;;;5048632;28;20040;-45
2022/10/07 01:48:40;;;;;;;6.90;3.40;;;;;;;;;;5055928;28;20067;-44
2022/10/07 01:51:07;;;;;;;8.00;3.60;;;;;;;;;;5048728;28;20465;-46
2022/10/07 01:54:09;;;;;;;6.85;3.13;;;;;;;;;;5050843;28;20041;-43
2022/10/07 01:56:47;;;;;;;6.75;3.35;;;;;;;;;;5050794;28;20495;-44
2022/10/07 01:59:31;;;;;;;6.10;3.40;;;;;;;;;;5050032;28;20037;-46
2022/10/07 02:02:14;;;;;;;11.18;3.72;;;;;;;;;;5044958;28;20082;-45
2022/10/07 02:04:48;;;;;;;9.85;3.78;;;;;;;;;;5050635;28;20029;-43
2022/10/07 02:07:44;;;;;;;7.90;3.85;;;;;;;;;;5047142;28;20041;-44
2022/10/07 02:10:49;;;;;;;4.60;3.50;;;;;;;;;;5048785;28;20033;-45
2022/10/07 02:13:38;;;;;;;7.35;3.13;;;;;;;;;;5043722;28;20033;-43
2022/10/07 02:16:11;;;;;;;8.77;3.60;;;;;;;;;;5044859;28;20832;-46
2022/10/07 02:18:40;;;;;;;6.05;3.70;;;;;;;;;;5048945;28;20033;-45
2022/10/07 02:21:07;;;;;;;6.68;3.53;;;;;;;;;;5051723;28;20025;-43
2022/10/07 02:23:36;;;;;;;11.60;3.67;;;;;;;;;;5048585;28;20055;-43
2022/10/07 02:26:04;;;;;;;4.88;3.40;;;;;;;;;;5046944;28;20028;-44
2022/10/07 02:28:34;;;;;;;5.38;3.33;;;;;;;;;;5048855;28;20049;-43
2022/10/07 02:31:02;;;;;;;10.95;3.90;;;;;;;;;;5047982;28;20024;-43
2022/10/07 02:33:29;;;;;;;5.40;3.67;;;;;;;;;;5045449;28;20037;-45
2022/10/07 02:35:58;;;;;;;6.15;3.53;;;;;;;;;;5049903;28;20112;-43
2022/10/07 02:38:25;;;;;;;9.20;3.90;;;;;;;;;;5048192;28;20056;-43
2022/10/07 02:41:04;;;;;;;9.00;3.67;;;;;;;;;;5048335;28;20201;-44
2022/10/07 02:43:38;;;;;;;8.95;3.05;;;;;;;;;;5042101;28;20080;-44
2022/10/07 02:46:09;;;;;;;5.78;3.10;;;;;;;;;;5050575;28;20037;-43
2022/10/07 02:48:43;;;;;;;8.93;3.17;;;;;;;;;;5046878;28;20049;-42
2022/10/07 02:51:15;;;;;;;5.35;3.13;;;;;;;;;;5048494;28;20033;-43
2022/10/07 02:53:41;;;;;;;5.90;3.15;;;;;;;;;;5049241;28;20033;-44
2022/10/07 02:56:07;;;;;;;8.95;3.50;;;;;;;;;;5047163;28;20052;-44
2022/10/07 02:58:34;;;;;;;6.03;3.45;;;;;;;;;;5048300;28;20704;-43
2022/10/07 03:01:01;;;;;;;7.15;3.03;;;;;;;;;;5036382;28;20440;-46
2022/10/07 03:03:27;;;;;;;8.98;3.63;;;;;;;;;;5046898;28;20033;-44
2022/10/07 03:05:53;;;;;;;5.65;3.70;;;;;;;;;;5033573;28;20056;-45
2022/10/07 03:08:20;;;;;;;4.88;3.47;;;;;;;;;;5048809;28;20056;-43
2022/10/07 03:10:46;;;;;;;6.15;3.28;;;;;;;;;;5047961;28;20083;-43
2022/10/07 03:13:14;;;;;;;6.60;3.25;;;;;;;;;;5045348;28;20033;-44
2022/10/07 03:15:40;;;;;;;7.10;3.47;;;;;;;;;;5049626;28;20036;-44
2022/10/07 03:18:06;;;;;;;3.92;3.45;;;;;;;;;;5045096;28;20043;-45
2022/10/07 03:20:32;;;;;;;5.18;3.40;;;;;;;;;;5049103;28;20032;-44
2022/10/07 03:22:58;;;;;;;7.38;3.13;;;;;;;;;;5046992;28;20044;-46
2022/10/07 03:25:25;;;;;;;4.63;3.30;;;;;;;;;;5044597;28;20047;-43
2022/10/07 03:27:53;;;;;;;3.60;3.08;;;;;;;;;;5044381;28;20161;-44
2022/10/07 03:30:21;;;;;;;9.88;3.53;;;;;;;;;;5047199;28;20119;-44
2022/10/07 03:32:48;;;;;;;6.53;3.55;;;;;;;;;;5046419;28;20044;-43
2022/10/07 03:35:14;;;;;;;10.63;3.20;;;;;;;;;;5046428;28;20103;-44
2022/10/07 03:37:39;;;;;;;4.65;3.20;;;;;;;;;;5048472;28;20037;-45
2022/10/07 03:40:05;;;;;;;5.75;3.33;;;;;;;;;;5045609;28;20615;-43
2022/10/07 03:42:30;;;;;;;6.85;3.22;;;;;;;;;;5046959;28;20049;-43
2022/10/07 03:44:56;;;;;;;6.72;3.47;;;;;;;;;;5047537;28;20477;-43
2022/10/07 03:47:21;;;;;;;4.03;3.58;;;;;;;;;;5046803;28;20044;-44
2022/10/07 03:49:47;;;;;;;3.90;3.05;;;;;;;;;;5048219;28;20064;-46
2022/10/07 03:52:12;;;;;;;5.13;3.08;;;;;;;;;;5044015;28;20120;-46
2022/10/07 03:54:38;;;;;;;6.85;3.70;;;;;;;;;;5046849;28;20098;-43
2022/10/07 03:57:48;;;;;;;5.32;3.20;;;;;;;;;;5045478;28;20037;-45
2022/10/07 03:59:49;;;;;;;8.73;3.55;;;;;;;;;;5047991;28;20047;-43
2022/10/07 04:02:14;;;;;;;6.20;3.40;;;;;;;;;;5047434;28;20143;-44
2022/10/07 04:04:39;;;;;;;11.88;3.10;;;;;;;;;;5031769;28;20037;-44
2022/10/07 04:07:05;;;;;;;5.40;3.30;;;;;;;;;;5047262;28;20029;-43
2022/10/07 04:09:31;;;;;;;6.65;3.10;;;;;;;;;;5046484;28;20072;-43
2022/10/07 04:11:56;;;;;;;6.82;3.35;;;;;;;;;;5033047;28;20064;-47
2022/10/07 04:14:21;;;;;;;4.40;3.40;;;;;;;;;;5046871;28;20032;-44
2022/10/07 04:16:47;;;;;;;6.03;3.20;;;;;;;;;;5046920;28;20500;-43
2022/10/07 04:19:13;;;;;;;7.43;3.08;;;;;;;;;;5048018;28;20385;-43
2022/10/07 04:21:38;;;;;;;6.82;3.35;;;;;;;;;;5047810;28;20515;-43
2022/10/07 04:24:04;;;;;;;7.78;3.47;;;;;;;;;;5046618;28;20047;-43
2022/10/07 04:26:29;;;;;;;8.48;3.95;;;;;;;;;;5046088;28;20136;-44
2022/10/07 04:28:54;;;;;;;5.65;3.67;;;;;;;;;;5047748;28;20671;-45
2022/10/07 04:31:20;;;;;;;5.68;4.05;;;;;;;;;;5047363;28;20108;-43
2022/10/07 04:33:45;;;;;;;5.95;3.40;;;;;;;;;;5045310;28;20564;-44
2022/10/07 04:36:11;;;;;;;7.22;3.35;;;;;;;;;;5047075;28;20060;-45
2022/10/07 04:38:37;;;;;;;9.18;4.10;;;;;;;;;;5045799;28;20511;-43
2022/10/07 04:41:05;;;;;;;7.47;3.33;;;;;;;;;;5045262;28;20075;-43
2022/10/07 04:43:32;;;;;;;7.03;3.47;;;;;;;;;;5048542;28;20703;-43
2022/10/07 04:46:04;;;;;;;7.72;3.80;;;;;;;;;;5046628;28;20033;-43
2022/10/07 04:48:30;;;;;;;5.75;3.28;;;;;;;;;;5038765;28;20088;-44
2022/10/07 04:51:03;;;;;;;6.95;3.50;;;;;;;;;;5048045;28;20999;-43
2022/10/07 04:53:28;;;;;;;8.52;3.42;;;;;;;;;;5045752;28;20075;-43
2022/10/07 04:55:53;;;;;;;8.55;3.83;;;;;;;;;;5046130;28;20041;-44
2022/10/07 04:58:19;;;;;;;5.68;3.83;;;;;;;;;;5045147;28;20091;-44
2022/10/07 05:00:49;;;;;;;4.10;3.33;;;;;;;;;;5041260;28;20072;-45
2022/10/07 05:03:16;;;;;;;6.50;3.85;;;;;;;;;;5040515;28;20413;-45
2022/10/07 05:05:44;;;;;;;8.05;3.58;;;;;;;;;;5049138;28;20028;-44
2022/10/07 05:08:11;;;;;;;10.00;3.45;;;;;;;;;;5042554;28;20540;-43
2022/10/07 05:10:38;;;;;;;6.38;3.55;;;;;;;;;;5045778;28;20087;-43
2022/10/07 05:13:05;;;;;;;7.93;3.95;;;;;;;;;;5045219;28;20061;-43
2022/10/07 05:15:30;;;;;;;6.20;3.40;;;;;;;;;;5038408;28;20024;-43
2022/10/07 05:17:56;;;;;;;6.43;3.53;;;;;;;;;;5040002;28;20084;-42
2022/10/07 05:20:21;;;;;;;6.70;3.70;;;;;;;;;;5041265;28;20114;-43
2022/10/07 05:22:47;;;;;;;5.63;3.67;;;;;;;;;;5035630;28;20055;-45
2022/10/07 05:25:13;;;;;;;4.63;3.80;;;;;;;;;;5041827;28;20029;-42
2022/10/07 05:27:39;;;;;;;7.38;4.03;;;;;;;;;;5049064;28;20033;-43
2022/10/07 05:30:08;;;;;;;8.55;3.80;;;;;;;;;;5044517;28;20044;-43
2022/10/07 05:32:34;;;;;;;4.40;3.78;;;;;;;;;;5043571;28;20493;-43
2022/10/07 05:35:00;;;;;;;6.00;3.55;;;;;;;;;;5047469;28;20059;-43
2022/10/07 05:37:26;;;;;;;5.43;3.80;;;;;;;;;;5038190;28;20044;-44
2022/10/07 05:39:51;;;;;;;4.97;3.55;;;;;;;;;;5041513;28;20033;-43
2022/10/07 05:42:17;;;;;;;9.00;4.15;;;;;;;;;;5043916;28;20052;-43
2022/10/07 05:44:42;;;;;;;8.23;4.03;;;;;;;;;;5042625;28;20021;-44
2022/10/07 05:47:08;;;;;;;7.53;3.65;;;;;;;;;;5038096;28;20060;-43
2022/10/07 05:49:34;;;;;;;7.75;3.90;;;;;;;;;;5041523;28;20040;-44
2022/10/07 05:52:00;;;;;;;8.65;3.85;;;;;;;;;;5044596;28;20033;-43
2022/10/07 05:54:25;;;;;;;9.73;4.05;;;;;;;;;;5041698;28;20039;-43
2022/10/07 05:56:51;;;;;;;6.30;3.50;;;;;;;;;;5041751;28;20121;-43
2022/10/07 05:59:16;;;;;;;5.03;3.60;;;;;;;;;;5039937;28;20017;-43
2022/10/07 06:01:42;;;;;;;4.35;3.50;;;;;;;;;;5037743;28;20082;-41
2022/10/07 06:04:07;;;;;;;6.72;4.05;;;;;;;;;;5038359;28;20029;-44
2022/10/07 06:06:34;;;;;;;5.45;3.45;;;;;;;;;;5040271;28;20040;-45
2022/10/07 06:13:06;;;;;;;8.90;4.20;;;;;;;;;;5035386;28;20045;-45
2022/10/07 06:14:29;;;;;;;6.13;3.30;;;;;;;;;;5042382;28;20136;-45
2022/10/07 06:16:54;;;;;;;4.90;3.40;;;;;;;;;;5044006;28;20111;-44
2022/10/07 06:19:23;;;;;;;12.00;4.18;;;;;;;;;;5043559;28;20123;-43
2022/10/07 06:21:49;;;;;;;5.70;3.47;;;;;;;;;;5043681;28;20029;-45
2022/10/07 06:24:14;;;;;;;5.85;3.60;;;;;;;;;;5044976;28;20546;-43
2022/10/07 06:26:42;;;;;;;5.50;3.50;;;;;;;;;;5036095;28;20033;-45
2022/10/07 06:29:08;;;;;;;6.95;3.67;;;;;;;;;;5039663;28;20037;-43
2022/10/07 06:31:34;;;;;;;5.50;3.50;;;;;;;;;;5044170;28;20033;-43
2022/10/07 06:33:59;;;;;;;5.00;3.50;;;;;;;;;;5044401;28;20040;-43
2022/10/07 06:36:25;;;;;;;9.15;3.90;;;;;;;;;;5031852;28;20500;-45
2022/10/07 06:38:53;;;;;;;3.45;3.15;;;;;;;;;;5043459;28;20126;-43
2022/10/07 06:41:20;;;;;;;6.32;3.78;;;;;;;;;;5042624;28;20025;-43
2022/10/07 06:43:45;;;;;;;3.63;3.28;;;;;;;;;;5038608;28;20041;-43
2022/10/07 06:46:15;;;;;;;6.80;3.40;;;;;;;;;;5043585;28;20331;-44
2022/10/07 06:48:41;;;;;;;4.13;3.20;;;;;;;;;;5040830;28;20037;-43
2022/10/07 06:51:10;;;;;;;6.18;3.78;;;;;;;;;;5044509;28;20032;-45
2022/10/07 06:53:35;;;;;;;6.28;3.30;;;;;;;;;;5041442;28;20044;-43
2022/10/07 06:56:02;;;;;;;10.02;3.67;;;;;;;;;;5043757;28;20040;-43
2022/10/07 06:58:28;;;;;;;5.72;3.65;;;;;;;;;;5043865;28;20062;-43
2022/10/07 07:00:53;;;;;;;11.70;3.38;;;;;;;;;;5045529;28;20041;-45
2022/10/07 07:03:19;;;;;;;6.57;3.63;;;;;;;;;;5039476;28;20405;-43
2022/10/07 07:05:45;;;;;;;8.63;3.58;;;;;;;;;;5042042;28;20029;-44
2022/10/07 07:08:12;;;;;;;6.32;3.33;;;;;;;;;;5043858;28;20053;-43
2022/10/07 07:10:39;;;;;;;7.80;3.60;;;;;;;;;;5042524;28;20090;-43
2022/10/07 07:13:06;;;;;;;4.28;3.30;;;;;;;;;;5042307;28;20033;-43
2022/10/07 07:15:32;;;;;;;7.47;3.63;;;;;;;;;;5041245;28;20075;-43
2022/10/07 07:17:58;;;;;;;7.38;3.10;;;;;;;;;;5041453;28;20068;-43
2022/10/07 07:20:23;;;;;;;5.05;3.05;;;;;;;;;;5043034;28;20052;-45
2022/10/07 07:22:51;;;;;;;4.18;3.33;;;;;;;;;;5039344;28;20041;-43
2022/10/07 07:25:16;;;;;;;5.90;3.38;;;;;;;;;;5043944;28;20057;-43
2022/10/07 07:27:42;;;;;;;6.20;3.00;;;;;;;;;;5042296;28;20065;-45
2022/10/07 07:30:08;;;;;;;3.58;3.20;;;;;;;;;;5041396;28;20025;-43
2022/10/07 07:32:34;;;;;;;7.65;3.78;;;;;;;;;;5042305;28;20036;-43
2022/10/07 07:35:00;;;;;;;5.65;2.85;;;;;;;;;;5044623;28;20037;-43
2022/10/07 07:37:28;;;;;;;5.80;3.08;;;;;;;;;;5040442;28;20045;-43
2022/10/07 07:39:54;;;;;;;4.80;2.95;;;;;;;;;;5042601;28;20033;-45
2022/10/07 07:42:20;;;;;;;5.13;2.92;;;;;;;;;;5039973;28;20044;-43
2022/10/07 07:44:46;;;;;;;6.07;2.90;;;;;;;;;;5041544;28;20107;-44
2022/10/07 07:47:11;;;;;;;7.22;2.78;;;;;;;;;;5040348;28;20048;-44
2022/10/07 07:49:37;;;;;;;14.52;3.40;;;;;;;;;;5041746;28;20040;-43
2022/10/07 07:52:03;;;;;;;4.50;3.08;;;;;;;;;;5042976;28;20044;-43
2022/10/07 07:54:28;;;;;;;6.47;3.33;;;;;;;;;;5038894;28;20060;-45
2022/10/07 07:56:55;;;;;;;5.25;3.28;;;;;;;;;;5044829;28;20033;-43
2022/10/07 07:59:20;;;;;;;5.28;2.78;;;;;;;;;;5041971;28;20029;-43
2022/10/07 08:01:46;;;;;;;4.00;2.80;;;;;;;;;;5038326;28;20025;-43
2022/10/07 08:04:15;;;;;;;7.15;2.95;;;;;;;;;;5042362;28;20040;-43
2022/10/07 08:06:41;;;;;;;6.05;3.08;;;;;;;;;;5041324;28;20033;-41
2022/10/07 08:09:06;;;;;;;5.95;2.85;;;;;;;;;;5044206;28;20049;-43
2022/10/07 08:11:32;;;;;;;5.82;2.75;;;;;;;;;;5039318;28;20025;-43
2022/10/07 08:13:58;;;;;;;5.65;3.40;;;;;;;;;;5041583;28;20147;-42
2022/10/07 08:16:25;;;;;;;7.60;2.70;;;;;;;;;;5039754;28;20025;-44
2022/10/07 08:18:51;;;;;;;2.95;2.75;;;;;;;;;;5039733;28;20053;-43
2022/10/07 08:21:19;;;;;;;4.13;2.65;;;;;;;;;;5041515;28;20082;-43
2022/10/07 08:23:46;;;;;;;7.28;2.92;;;;;;;;;;5040278;28;22165;-44
2022/10/07 08:26:13;;;;;;;5.25;2.90;;;;;;;;;;5041733;28;20397;-43
2022/10/07 08:28:39;;;;;;;5.47;3.15;;;;;;;;;;5038185;28;20045;-41
2022/10/07 08:31:07;;;;;;;4.68;3.03;;;;;;;;;;5041831;28;20094;-43
2022/10/07 08:33:35;;;;;;;9.27;2.95;;;;;;;;;;5038306;28;20044;-43
2022/10/07 08:36:03;;;;;;;6.53;2.90;;;;;;;;;;5042022;28;20039;-43
2022/10/07 08:38:30;;;;;;;5.63;3.45;;;;;;;;;;5039445;28;20675;-43
2022/10/07 08:41:16;;;;;;;4.90;2.90;;;;;;;;;;5037417;28;20132;-48
2022/10/07 08:43:45;;;;;;;8.10;3.60;;;;;;;;;;5037047;28;20044;-47
2022/10/07 08:46:15;;;;;;;4.68;3.08;;;;;;;;;;5040989;28;20052;-44
2022/10/07 08:48:43;;;;;;;5.95;3.10;;;;;;;;;;5035447;28;20041;-45
2022/10/07 08:51:29;;;;;;;6.10;3.30;;;;;;;;;;5040886;28;20734;-43
2022/10/07 08:53:59;;;;;;;7.97;3.03;;;;;;;;;;5039252;28;20051;-44
2022/10/07 08:56:25;;;;;;;4.22;2.88;;;;;;;;;;5041170;28;20037;-43
2022/10/07 08:59:24;;;;;;;8.05;3.00;;;;;;;;;;5039238;28;20072;-43
2022/10/07 09:02:20;;;;;;;3.38;2.78;;;;;;;;;;5040369;28;20156;-44
2022/10/07 09:04:56;;;;;;;5.75;3.03;;;;;;;;;;5039487;28;20090;-43
2022/10/07 09:07:31;;;;;;;5.35;3.10;;;;;;;;;;5040716;28;20132;-42
2022/10/07 09:10:08;;;;;;;3.63;2.80;;;;;;;;;;5039563;28;20112;-42
2022/10/07 09:12:43;;;;;;;5.65;3.05;;;;;;;;;;5039203;28;20041;-43
2022/10/07 09:15:19;;;;;;;4.65;3.05;;;;;;;;;;5041098;28;20036;-44
2022/10/07 09:18:01;;;;;;;5.60;3.22;;;;;;;;;;5039752;28;20048;-43
2022/10/07 09:20:33;;;;;;;4.78;3.13;;;;;;;;;;5039506;28;20036;-44
2022/10/07 09:23:00;;;;;;;7.32;3.05;;;;;;;;;;5037212;28;20488;-44
2022/10/07 09:25:29;;;;;;;6.80;3.42;;;;;;;;;;5038522;28;20040;-44
2022/10/07 09:27:55;;;;;;;8.02;3.60;;;;;;;;;;5035011;28;20037;-44
2022/10/07 09:30:22;;;;;;;14.05;3.85;;;;;;;;;;5041775;28;20033;-44
2022/10/07 09:32:53;;;;;;;5.97;3.50;;;;;;;;;;5038957;28;20044;-45
2022/10/07 09:35:21;;;;;;;10.18;3.88;;;;;;;;;;5039851;28;20041;-45
2022/10/07 09:38:06;;;;;;;12.07;4.43;;;;;;;;;;5039845;28;20068;-45
2022/10/07 09:41:13;;;;;;;10.48;4.22;;;;;;;;;;5036922;28;20448;-46
2022/10/07 09:43:26;;;;;;;8.25;4.38;;;;;;;;;;5038163;28;20096;-44
2022/10/07 09:45:53;;;;;;;8.82;4.70;;;;;;;;;;5043408;28;20024;-44
2022/10/07 09:48:31;;;;;;;11.02;4.88;;;;;;;;;;5042226;28;20371;-48
2022/10/07 09:51:12;;;;;;;6.78;5.10;;;;;;;;;;5044447;28;20039;-44
2022/10/07 09:53:54;;;;;;;8.98;5.65;;;;;;;;;;5033382;28;20839;-44
2022/10/07 09:56:31;;;;;;;19.08;8.68;;;;;;;;;;5038465;28;20654;-44
2022/10/07 09:59:16;;;;;;;17.30;7.38;;;;;;;;;;5037421;28;20124;-43
2022/10/07 10:01:50;;;;;;;15.13;7.32;;;;;;;;;;5044499;28;20033;-41
2022/10/07 10:04:17;;;;;;;14.48;6.40;;;;;;;;;;5038861;28;20109;-43
2022/10/07 10:06:50;;;;;;;10.60;6.80;;;;;;;;;;5041745;28;20381;-42
2022/10/07 10:09:22;;;;;;;20.58;7.28;;;;;;;;;;5042912;28;20477;-44
2022/10/07 10:12:12;;;;;;;25.33;6.97;;;;;;;;;;5042455;28;20068;-44
2022/10/07 10:14:49;;;;;;;12.07;8.00;;;;;;;;;;5041437;28;20029;-44
2022/10/07 10:17:41;;;;;;;15.30;8.35;;;;;;;;;;5041078;28;20045;-44
2022/10/07 10:20:30;;;;;;;18.98;9.48;;;;;;;;;;5045214;28;20132;-44
2022/10/07 10:22:56;;;;;;;14.65;8.52;;;;;;;;;;5045919;28;20053;-44
2022/10/07 10:29:12;;;;;;;23.42;7.95;;;;;;;;;;5048051;28;20044;-44
2022/10/07 10:31:49;;;;;;;17.77;6.25;;;;;;;;;;5047458;28;20504;-43
2022/10/07 10:34:30;;;;;;;8.63;6.07;;;;;;;;;;5045327;28;20937;-44
2022/10/07 10:37:17;;;;;;;16.00;6.38;;;;;;;;;;5049596;28;20030;-44
2022/10/07 10:39:51;;;;;;;6.65;4.88;;;;;;;;;;5045044;28;20440;-46
2022/10/07 10:42:24;;;;;;;17.70;5.90;;;;;;;;;;5045530;28;20099;-44
2022/10/07 10:45:36;;;;;;;9.85;4.93;;;;;;;;;;5047270;28;20047;-45
2022/10/07 10:48:27;;;;;;;6.95;4.10;;;;;;;;;;5040042;28;20095;-44
2022/10/07 10:51:13;;;;;;;7.55;4.50;;;;;;;;;;5049129;28;20048;-45
2022/10/07 10:54:15;;;;;;;12.63;5.00;;;;;;;;;;5048723;28;20046;-48
2022/10/07 10:56:46;;;;;;;11.75;4.75;;;;;;;;;;5049645;28;20044;-44
2022/10/07 10:59:22;;;;;;;;;;;;;;;;;;5046430;28;20427;-43
2022/10/07 11:01:57;;;;;;;15.05;4.18;;;;;;;;;;5049258;28;20573;-42
2022/10/07 11:04:39;;;;;;;8.90;3.80;;;;;;;;;;5047469;28;20089;-47
2022/10/07 11:07:28;;;;;;;8.82;3.40;;;;;;;;;;5049332;28;20500;-46
2022/10/07 11:10:01;;;;;;;3.92;2.95;;;;;;;;;;5047452;28;20028;-44
2022/10/07 11:12:36;;;;;;;6.32;3.50;;;;;;;;;;5047370;28;20037;-44
2022/10/07 11:15:18;;;;;;;10.20;3.20;;;;;;;;;;5048523;28;20064;-47
2022/10/07 11:17:45;;;;;;;;;;;;;;;;;;5046091;28;20497;-48
2022/10/07 11:20:21;;;;;;;8.57;3.13;;;;;;;;;;5049978;28;20596;-46
2022/10/07 11:22:55;;;;;;;9.77;3.30;;;;;;;;;;5041183;28;20052;-44
2022/10/07 11:25:37;;;;;;;6.40;3.25;;;;;;;;;;5046490;28;20028;-45
2022/10/07 11:28:23;;;;;;;5.50;3.33;;;;;;;;;;5046932;28;20045;-47
2022/10/07 11:30:56;;;;;;;8.95;3.38;;;;;;;;;;5037143;28;20060;-44
2022/10/07 11:33:42;;;;;;;7.75;3.35;;;;;;;;;;5051118;28;20032;-48
2022/10/07 11:36:17;;;;;;;10.13;3.25;;;;;;;;;;5042374;28;20477;-44
2022/10/07 11:38:45;;;;;;;5.60;2.85;;;;;;;;;;5038103;28;20045;-43
2022/10/07 11:41:18;;;;;;;4.07;3.08;;;;;;;;;;5040074;28;20103;-46
2022/10/07 11:43:52;;;;;;;5.93;3.20;;;;;;;;;;5034878;28;20075;-43
2022/10/07 11:46:17;;;;;;;8.32;3.53;;;;;;;;;;5042571;28;20770;-43
2022/10/07 11:48:48;;;;;;;8.07;3.50;;;;;;;;;;5048341;28;20049;-45
2022/10/07 11:51:29;;;;;;;7.53;3.17;;;;;;;;;;5046758;28;20043;-44
2022/10/07 11:53:59;;;;;;;8.93;3.90;;;;;;;;;;5049399;28;20033;-45
2022/10/07 11:56:26;;;;;;;12.60;3.42;;;;;;;;;;5044581;28;20143;-43
2022/10/07 11:59:01;;;;;;;6.25;3.33;;;;;;;;;;5043992;28;20045;-43
2022/10/07 12:01:29;;;;;;;8.48;3.25;;;;;;;;;;5041696;28;20021;-44
2022/10/07 12:03:59;;;;;;;12.35;3.30;;;;;;;;;;5042449;28;20497;-44
2022/10/07 12:06:24;;;;;;;11.18;3.55;;;;;;;;;;5037280;28;21002;-45
2022/10/07 12:08:52;;;;;;;5.80;3.70;;;;;;;;;;5041698;28;20049;-43
2022/10/07 12:11:17;;;;;;;4.75;3.05;;;;;;;;;;5041769;28;20039;-43
2022/10/07 12:13:48;;;;;;;5.07;3.10;;;;;;;;;;5037955;28;20033;-43
2022/10/07 12:16:22;;;;;;;3.80;3.47;;;;;;;;;;5044109;28;20167;-43
2022/10/07 12:19:06;;;;;;;5.60;3.05;;;;;;;;;;5035376;28;20052;-44
2022/10/07 12:22:01;;;;;;;6.15;3.10;;;;;;;;;;5046350;28;20515;-43
2022/10/07 12:24:29;;;;;;;12.32;3.50;;;;;;;;;;5043564;28;20098;-45
2022/10/07 12:26:56;;;;;;;5.65;2.97;;;;;;;;;;5036266;28;20025;-45
2022/10/07 12:29:31;;;;;;;5.32;3.10;;;;;;;;;;5041232;28;20067;-44
2022/10/07 12:31:57;;;;;;;8.85;2.80;;;;;;;;;;5038242;28;20029;-42
2022/10/07 12:34:40;;;;;;;6.93;3.25;;;;;;;;;;5041429;28;20363;-44
2022/10/07 12:37:39;;;;;;;9.25;3.45;;;;;;;;;;5041262;28;20049;-44
2022/10/07 12:40:16;;;;;;;8.95;3.55;;;;;;;;;;5039018;28;20063;-44
2022/10/07 12:42:57;;;;;;;8.00;3.55;;;;;;;;;;5038568;28;20037;-44
2022/10/07 12:45:26;;;;;;;10.45;2.97;;;;;;;;;;5043893;28;20025;-44
2022/10/07 12:47:54;;;;;;;10.38;3.15;;;;;;;;;;5041739;28;20029;-44
2022/10/07 12:50:22;;;;;;;9.88;2.67;;;;;;;;;;5043806;28;20034;-44
2022/10/07 12:52:51;;;;;;;11.32;3.30;;;;;;;;;;5043772;28;20120;-44
2022/10/07 12:55:32;;;;;;;6.80;3.00;;;;;;;;;;5043560;28;20071;-42
2022/10/07 12:59:46;;;;;;;5.30;2.45;;;;;;;;;;5039407;28;20037;-43
2022/10/07 13:01:02;;;;;;;4.75;3.10;;;;;;;;;;5039767;28;20026;-44
2022/10/07 13:03:41;;;;;;;7.72;3.38;;;;;;;;;;5043114;28;20076;-44
2022/10/07 13:06:17;;;;;;;5.53;3.08;;;;;;;;;;5044387;28;20029;-45
2022/10/07 13:09:01;;;;;;;4.38;2.70;;;;;;;;;;5043587;28;20045;-44
2022/10/07 13:11:51;;;;;;;6.38;3.00;;;;;;;;;;5044403;28;20029;-44
2022/10/07 13:14:42;;;;;;;11.13;3.25;;;;;;;;;;5044203;28;20576;-44
2022/10/07 13:17:30;;;;;;;12.82;3.28;;;;;;;;;;5031059;28;20489;-44
2022/10/07 13:20:36;;;;;;;8.95;3.63;;;;;;;;;;5044145;28;20444;-44
2022/10/07 13:23:10;;;;;;;9.95;3.15;;;;;;;;;;4979653;28;20051;-46
2022/10/07 13:25:43;;;;;;;5.57;3.33;;;;;;;;;;4982120;28;20045;-44
2022/10/07 13:28:15;;;;;;;7.47;3.50;;;;;;;;;;4980440;28;20137;-44
2022/10/07 13:30:42;;;;;;;8.55;3.78;;;;;;;;;;4987114;28;20030;-45
2022/10/07 13:33:30;;;;;;;6.45;3.55;;;;;;;;;;4983408;28;20038;-43
2022/10/07 13:36:10;;;;;;;4.05;3.00;;;;;;;;;;4976886;28;20050;-44
2022/10/07 13:38:35;;;;;;;11.77;3.30;;;;;;;;;;4983335;28;20050;-45
2022/10/07 13:41:07;;;;;;;8.93;4.00;;;;;;;;;;4986325;28;20506;-44
2022/10/07 13:43:34;;;;;;;5.78;3.70;;;;;;;;;;4986158;28;20045;-46
2022/10/07 13:46:01;;;;;;;13.00;4.05;;;;;;;;;;4987864;28;20026;-45
2022/10/07 13:48:31;;;;;;;8.57;3.80;;;;;;;;;;4986394;28;20120;-45
2022/10/07 13:50:58;;;;;;;7.80;4.20;;;;;;;;;;4987816;28;20034;-47
2022/10/07 13:53:36;;;;;;;9.95;4.38;;;;;;;;;;4986897;28;20388;-44
2022/10/07 13:56:24;;;;;;;8.55;4.50;;;;;;;;;;4988214;28;20108;-46
2022/10/07 13:58:53;;;;;;;10.20;4.25;;;;;;;;;;4991048;28;20527;-44
2022/10/07 14:01:20;;;;;;;9.65;4.20;;;;;;;;;;5046285;28;20041;-44
2022/10/07 14:04:19;;;;;;;12.13;4.60;;;;;;;;;;5043521;28;20041;-44
2022/10/07 14:06:54;;;;;;;11.32;4.85;;;;;;;;;;5046506;28;20032;-47
2022/10/07 14:09:30;;;;;;;9.75;5.75;;;;;;;;;;5045726;28;20041;-47
2022/10/07 14:12:01;;;;;;;12.65;4.60;;;;;;;;;;5045090;28;20033;-47
2022/10/07 14:14:32;;;;;;;9.65;5.68;;;;;;;;;;5046436;28;20484;-45
2022/10/07 14:16:58;;;;;;;7.85;4.85;;;;;;;;;;5044348;28;20033;-43
2022/10/07 14:19:31;;;;;;;13.15;5.75;;;;;;;;;;5047900;28;20029;-45
2022/10/07 14:22:03;;;;;;;7.38;4.15;;;;;;;;;;5046838;28;20037;-43
2022/10/07 14:24:29;;;;;;;12.02;4.93;;;;;;;;;;5050925;28;20107;-45
2022/10/07 14:26:55;;;;;;;8.20;4.50;;;;;;;;;;5045396;28;20485;-47
2022/10/07 14:29:27;;;;;;;9.15;5.07;;;;;;;;;;5049712;28;20078;-44
2022/10/07 14:35:18;;;;;;;7.65;5.45;;;;;;;;;;5040948;28;20141;-44
2022/10/07 14:37:43;;;;;;;21.63;5.63;;;;;;;;;;5039143;28;20032;-48
2022/10/07 14:40:22;;;;;;;10.82;4.63;;;;;;;;;;5042619;28;20056;-46
2022/10/07 14:42:52;;;;;;;8.18;4.43;;;;;;;;;;5043368;28;20075;-47
2022/10/07 14:45:17;;;;;;;7.15;5.00;;;;;;;;;;5041734;28;20029;-43
2022/10/07 14:47:44;;;;;;;10.65;5.15;;;;;;;;;;5043826;28;20107;-47
2022/10/07 14:50:13;;;;;;;9.90;5.20;;;;;;;;;;5040860;28;20067;-45
2022/10/07 14:52:45;;;;;;;7.53;5.15;;;;;;;;;;5041867;28;20033;-43
2022/10/07 14:55:25;;;;;;;6.07;5.40;;;;;;;;;;5040068;28;20189;-46
2022/10/07 14:57:51;;;;;;;8.05;5.32;;;;;;;;;;5041127;28;20088;-44
2022/10/07 15:00:28;;;;;;;9.60;5.97;;;;;;;;;;5041968;28;20035;-46
2022/10/07 15:02:53;;;;;;;10.80;7.05;;;;;;;;;;5039160;28;20033;-47
2022/10/07 15:05:19;;;;;;;12.07;7.03;;;;;;;;;;5046296;28;20780;-44
2022/10/07 15:07:44;;;;;;;10.35;7.35;;;;;;;;;;5045868;28;20040;-44
2022/10/07 15:10:22;;;;;;;8.90;6.43;;;;;;;;;;5046685;28;20080;-44
2022/10/07 15:12:48;;;;;;;13.20;6.57;;;;;;;;;;5042460;28;20041;-44
2022/10/07 15:15:14;;;;;;;8.77;5.43;;;;;;;;;;5042146;28;20473;-46